Time;durP1;ratioP1;P1;durP2;ratioP2;P2;SDS_P1;SDS_P2;PMS_P1;PMS_P2;Temp;Humidity;BMP_temperature;BMP_pressure;BME280_temperature;BME280_humidity;BME280_pressure;Samples;Min_cycle;Max_cycle;Signal;HPM_P1;HPM_P2
2022/12/13 00:00:30;;;;;;;33.17;17.03;;;;;;;;;;5095445;28;20421;-70
2022/12/13 00:02:57;;;;;;;29.93;14.93;;;;;;;;;;5095223;28;20511;-70
2022/12/13 00:05:26;;;;;;;28.13;14.13;;;;;;;;;;5094467;28;20541;-71
2022/12/13 00:07:53;;;;;;;25.30;13.43;;;;;;;;;;5094856;28;20513;-71
2022/12/13 00:10:20;;;;;;;26.60;13.20;;;;;;;;;;5095025;28;20456;-71
2022/12/13 00:12:47;;;;;;;25.80;13.53;;;;;;;;;;5094829;28;20457;-71
2022/12/13 00:15:14;;;;;;;30.20;16.17;;;;;;;;;;5094147;28;20499;-71
2022/12/13 00:17:41;;;;;;;21.33;13.33;;;;;;;;;;5094570;28;20569;-72
2022/12/13 00:20:09;;;;;;;30.13;15.33;;;;;;;;;;5094859;28;20460;-71
2022/12/13 00:22:37;;;;;;;22.50;13.77;;;;;;;;;;5094818;28;20541;-71
2022/12/13 00:25:05;;;;;;;27.57;12.37;;;;;;;;;;5094100;28;20526;-70
2022/12/13 00:27:32;;;;;;;22.43;10.43;;;;;;;;;;5094696;28;20876;-72
2022/12/13 00:30:00;;;;;;;21.17;11.10;;;;;;;;;;5094561;28;20457;-73
2022/12/13 00:32:27;;;;;;;36.67;15.60;;;;;;;;;;5094581;28;20454;-70
2022/12/13 00:34:54;;;;;;;32.10;11.77;;;;;;;;;;5093821;28;21021;-70
2022/12/13 00:37:21;;;;;;;21.40;10.57;;;;;;;;;;5093341;28;20445;-70
2022/12/13 00:39:50;;;;;;;18.67;12.97;;;;;;;;;;5094386;28;20454;-70
2022/12/13 00:42:17;;;;;;;22.23;10.47;;;;;;;;;;5094361;28;20429;-70
2022/12/13 00:44:44;;;;;;;22.93;10.03;;;;;;;;;;5093621;28;20420;-70
2022/12/13 00:47:11;;;;;;;14.90;8.63;;;;;;;;;;5093974;28;20501;-70
2022/12/13 00:49:38;;;;;;;24.60;13.70;;;;;;;;;;5094102;28;20436;-71
2022/12/13 00:52:05;;;;;;;30.77;11.87;;;;;;;;;;5094092;28;20966;-71
2022/12/13 00:54:33;;;;;;;13.67;8.40;;;;;;;;;;5093351;28;21012;-72
2022/12/13 00:57:01;;;;;;;18.60;10.37;;;;;;;;;;5093999;28;20560;-72
2022/12/13 00:59:28;;;;;;;11.30;8.10;;;;;;;;;;5093789;28;20429;-72
2022/12/13 01:01:56;;;;;;;12.60;8.20;;;;;;;;;;5093877;28;20515;-70
2022/12/13 01:04:23;;;;;;;19.57;9.53;;;;;;;;;;5092955;28;20517;-71
2022/12/13 01:06:50;;;;;;;9.47;5.70;;;;;;;;;;5093814;28;20446;-70
2022/12/13 01:09:18;;;;;;;8.20;6.70;;;;;;;;;;5093187;28;20454;-70
2022/12/13 01:11:46;;;;;;;18.00;9.00;;;;;;;;;;5093693;28;20418;-70
2022/12/13 01:14:15;;;;;;;16.17;8.23;;;;;;;;;;5093144;28;20446;-71
2022/12/13 01:16:42;;;;;;;23.13;11.60;;;;;;;;;;5093238;28;20493;-71
2022/12/13 01:19:09;;;;;;;17.30;10.10;;;;;;;;;;5093757;28;20451;-71
2022/12/13 01:21:36;;;;;;;10.27;6.27;;;;;;;;;;5093703;28;20461;-70
2022/12/13 01:24:03;;;;;;;18.90;10.27;;;;;;;;;;5092919;28;20439;-70
2022/12/13 01:26:31;;;;;;;15.33;9.00;;;;;;;;;;5093471;28;20482;-70
2022/12/13 01:28:58;;;;;;;19.43;10.07;;;;;;;;;;5093438;28;20476;-70
2022/12/13 01:31:27;;;;;;;19.87;9.23;;;;;;;;;;5093445;28;20461;-70
2022/12/13 01:33:54;;;;;;;28.40;9.30;;;;;;;;;;5092955;28;20505;-70
2022/12/13 01:36:22;;;;;;;15.40;9.60;;;;;;;;;;5092228;28;20490;-72
2022/12/13 01:38:49;;;;;;;23.93;9.20;;;;;;;;;;5093008;28;20577;-70
2022/12/13 01:41:17;;;;;;;17.90;10.00;;;;;;;;;;5093334;28;20450;-70
2022/12/13 01:43:53;;;;;;;17.03;8.77;;;;;;;;;;5092639;28;20447;-71
2022/12/13 01:46:20;;;;;;;17.73;7.63;;;;;;;;;;5093773;28;20453;-70
2022/12/13 01:48:50;;;;;;;19.13;9.60;;;;;;;;;;5092940;28;21099;-70
2022/12/13 01:51:19;;;;;;;15.33;9.63;;;;;;;;;;5093273;28;20775;-70
2022/12/13 01:53:47;;;;;;;20.97;10.27;;;;;;;;;;5092392;28;20447;-71
2022/12/13 01:56:16;;;;;;;18.57;9.57;;;;;;;;;;5092975;28;20486;-70
2022/12/13 01:58:44;;;;;;;14.40;9.13;;;;;;;;;;5092832;28;20449;-70
2022/12/13 02:01:11;;;;;;;19.13;9.57;;;;;;;;;;5092858;28;20450;-70
2022/12/13 02:03:39;;;;;;;19.97;7.50;;;;;;;;;;5092317;28;20454;-71
2022/12/13 02:06:10;;;;;;;16.07;6.97;;;;;;;;;;5092754;28;20447;-70
2022/12/13 02:08:39;;;;;;;11.95;8.35;;;;;;;;;;5092844;28;20445;-72
2022/12/13 02:11:07;;;;;;;11.00;7.33;;;;;;;;;;5092794;28;20580;-72
2022/12/13 02:13:34;;;;;;;6.07;4.00;;;;;;;;;;5092417;28;20944;-71
2022/12/13 02:16:06;;;;;;;14.52;7.72;;;;;;;;;;5092475;28;20489;-71
2022/12/13 02:18:45;;;;;;;13.50;6.73;;;;;;;;;;5092594;28;20319;-71
2022/12/13 02:21:17;;;;;;;13.53;7.67;;;;;;;;;;5097226;28;20458;-70
2022/12/13 02:24:02;;;;;;;16.60;9.10;;;;;;;;;;5096436;28;20439;-72
2022/12/13 02:26:42;;;;;;;16.00;9.43;;;;;;;;;;5086966;28;20458;-70
2022/12/13 02:29:16;;;;;;;22.13;7.90;;;;;;;;;;5096729;28;20450;-70
2022/12/13 02:31:48;;;;;;;15.83;6.50;;;;;;;;;;5096927;28;20809;-71
2022/12/13 02:34:19;;;;;;;37.33;13.73;;;;;;;;;;5096258;28;20797;-70
2022/12/13 02:36:50;;;;;;;20.93;9.77;;;;;;;;;;5094972;28;20494;-70
2022/12/13 02:39:19;;;;;;;13.40;8.97;;;;;;;;;;5096693;28;20466;-70
2022/12/13 02:41:48;;;;;;;12.23;6.30;;;;;;;;;;5096616;28;20455;-71
2022/12/13 02:44:18;;;;;;;15.80;5.77;;;;;;;;;;5096108;28;20425;-71
2022/12/13 02:46:51;;;;;;;12.70;7.20;;;;;;;;;;5096437;28;20446;-70
2022/12/13 02:49:19;;;;;;;12.23;6.80;;;;;;;;;;5096525;28;20555;-70
2022/12/13 02:51:46;;;;;;;9.27;7.03;;;;;;;;;;5096447;28;20435;-70
2022/12/13 02:54:13;;;;;;;19.37;10.53;;;;;;;;;;5095700;28;20454;-72
2022/12/13 02:56:40;;;;;;;17.00;11.17;;;;;;;;;;5096247;28;20471;-70
2022/12/13 02:59:10;;;;;;;17.53;8.97;;;;;;;;;;5096463;28;20816;-70
2022/12/13 03:01:48;;;;;;;12.60;8.60;;;;;;;;;;5096143;28;20432;-70
2022/12/13 03:04:21;;;;;;;10.73;6.17;;;;;;;;;;5095841;28;20458;-73
2022/12/13 03:06:53;;;;;;;9.73;5.50;;;;;;;;;;5096056;28;20987;-69
2022/12/13 03:09:27;;;;;;;8.63;5.57;;;;;;;;;;5096149;28;20421;-72
2022/12/13 03:14:50;;;;;;;9.40;7.23;;;;;;;;;;5095367;28;20426;-71
2022/12/13 03:17:19;;;;;;;13.33;9.20;;;;;;;;;;5095713;28;20493;-72
2022/12/13 03:19:47;;;;;;;20.05;12.50;;;;;;;;;;5095816;28;20469;-72
2022/12/13 03:22:16;;;;;;;24.43;9.20;;;;;;;;;;5096039;28;20562;-71
2022/12/13 03:24:43;;;;;;;12.73;8.13;;;;;;;;;;5095190;28;20436;-72
2022/12/13 03:27:10;;;;;;;25.00;11.23;;;;;;;;;;5095733;28;20989;-72
2022/12/13 03:29:37;;;;;;;16.30;8.60;;;;;;;;;;5095474;28;20436;-72
2022/12/13 03:32:04;;;;;;;10.70;6.20;;;;;;;;;;5095298;28;20449;-72
2022/12/13 03:34:31;;;;;;;14.07;9.63;;;;;;;;;;5095072;28;20429;-71
2022/12/13 03:37:00;;;;;;;22.97;12.93;;;;;;;;;;5094393;28;20233;-71
2022/12/13 03:39:27;;;;;;;12.70;8.30;;;;;;;;;;5095704;28;20639;-72
2022/12/13 03:41:54;;;;;;;17.30;10.50;;;;;;;;;;5095309;28;20216;-72
2022/12/13 03:44:22;;;;;;;16.63;9.50;;;;;;;;;;5094886;28;20447;-71
2022/12/13 03:46:49;;;;;;;14.13;9.30;;;;;;;;;;5095502;28;20438;-72
2022/12/13 03:49:16;;;;;;;17.37;9.17;;;;;;;;;;5095910;28;20945;-71
2022/12/13 03:51:43;;;;;;;19.23;9.40;;;;;;;;;;5095142;28;20425;-72
2022/12/13 03:54:12;;;;;;;25.25;10.48;;;;;;;;;;5094911;28;20431;-72
2022/12/13 03:56:39;;;;;;;17.08;7.88;;;;;;;;;;5095066;28;20235;-72
2022/12/13 03:59:06;;;;;;;9.90;4.87;;;;;;;;;;5095333;28;20216;-71
2022/12/13 04:01:33;;;;;;;17.73;7.95;;;;;;;;;;5095175;28;20428;-71
2022/12/13 04:04:00;;;;;;;10.83;4.43;;;;;;;;;;5094406;28;20212;-71
2022/12/13 04:06:28;;;;;;;20.05;10.10;;;;;;;;;;5095198;28;20423;-71
2022/12/13 04:08:55;;;;;;;13.23;7.93;;;;;;;;;;5094772;28;20284;-73
2022/12/13 04:14:08;;;;;;;15.43;8.05;;;;;;;;;;5094460;28;20538;-72
2022/12/13 04:16:35;;;;;;;19.33;8.50;;;;;;;;;;5094678;28;20243;-73
2022/12/13 04:19:02;;;;;;;9.17;5.37;;;;;;;;;;5095022;28;20482;-71
2022/12/13 04:21:29;;;;;;;12.70;8.10;;;;;;;;;;5094824;28;20928;-72
2022/12/13 04:23:57;;;;;;;12.73;8.13;;;;;;;;;;5093972;28;20465;-72
2022/12/13 04:26:25;;;;;;;12.67;7.90;;;;;;;;;;5094824;28;20208;-71
2022/12/13 04:28:52;;;;;;;30.80;13.80;;;;;;;;;;5094439;28;20506;-71
2022/12/13 04:31:19;;;;;;;27.17;9.40;;;;;;;;;;5094628;28;20447;-70
2022/12/13 04:33:47;;;;;;;23.03;9.40;;;;;;;;;;5093899;28;20454;-72
2022/12/13 04:36:18;;;;;;;22.57;10.10;;;;;;;;;;5094328;28;20519;-70
2022/12/13 04:38:45;;;;;;;13.03;7.50;;;;;;;;;;5093604;28;20972;-72
2022/12/13 04:41:14;;;;;;;9.63;7.10;;;;;;;;;;5094561;28;20840;-71
2022/12/13 04:43:43;;;;;;;17.60;7.57;;;;;;;;;;5092677;28;20208;-71
2022/12/13 04:46:10;;;;;;;11.40;7.67;;;;;;;;;;5094259;28;20428;-72
2022/12/13 04:48:37;;;;;;;21.80;10.80;;;;;;;;;;5094105;28;20473;-71
2022/12/13 04:51:05;;;;;;;15.50;10.93;;;;;;;;;;5094067;28;20454;-71
2022/12/13 04:53:32;;;;;;;19.87;8.00;;;;;;;;;;5093828;28;20948;-72
2022/12/13 04:55:59;;;;;;;19.43;10.77;;;;;;;;;;5093972;28;20991;-71
2022/12/13 04:58:26;;;;;;;24.00;8.80;;;;;;;;;;5093834;28;20456;-71
2022/12/13 05:00:55;;;;;;;8.10;4.63;;;;;;;;;;5093825;28;20486;-72
2022/12/13 05:03:22;;;;;;;7.33;6.70;;;;;;;;;;5093608;28;20434;-72
2022/12/13 05:05:49;;;;;;;26.53;9.90;;;;;;;;;;5093413;28;20443;-72
2022/12/13 05:08:16;;;;;;;27.93;10.03;;;;;;;;;;5093835;28;20843;-72
2022/12/13 05:10:43;;;;;;;8.20;5.60;;;;;;;;;;5093728;28;20450;-71
2022/12/13 05:13:10;;;;;;;9.93;6.25;;;;;;;;;;5093851;28;20959;-71
2022/12/13 05:15:38;;;;;;;23.45;6.15;;;;;;;;;;5092990;28;20215;-72
2022/12/13 05:18:07;;;;;;;5.87;5.30;;;;;;;;;;5093416;28;20717;-71
2022/12/13 05:20:34;;;;;;;35.77;11.23;;;;;;;;;;5093700;28;20429;-72
2022/12/13 05:23:02;;;;;;;10.90;5.70;;;;;;;;;;5093663;28;20818;-71
2022/12/13 05:25:29;;;;;;;17.07;8.23;;;;;;;;;;5092886;28;20461;-71
2022/12/13 05:27:57;;;;;;;9.38;5.68;;;;;;;;;;5093273;28;20469;-72
2022/12/13 05:30:24;;;;;;;3.50;2.50;;;;;;;;;;5093418;28;20208;-71
2022/12/13 05:32:51;;;;;;;9.18;7.18;;;;;;;;;;5093632;28;20674;-71
2022/12/13 05:35:20;;;;;;;9.82;6.88;;;;;;;;;;5092982;28;20207;-71
2022/12/13 05:37:47;;;;;;;4.40;4.00;;;;;;;;;;5092353;28;20239;-72
2022/12/13 05:40:14;;;;;;;5.27;4.70;;;;;;;;;;5093305;28;20457;-72
2022/12/13 05:42:41;;;;;;;7.37;3.17;;;;;;;;;;5093040;28;20428;-72
2022/12/13 05:45:09;;;;;;;4.60;2.97;;;;;;;;;;5092711;28;20910;-72
2022/12/13 05:47:36;;;;;;;7.22;4.72;;;;;;;;;;5093018;28;20455;-71
2022/12/13 05:50:03;;;;;;;3.55;3.25;;;;;;;;;;5093136;28;20212;-71
2022/12/13 05:52:32;;;;;;;15.40;7.50;;;;;;;;;;5093164;28;20700;-72
2022/12/13 05:54:59;;;;;;;3.92;3.53;;;;;;;;;;5092150;28;20458;-72
2022/12/13 05:57:26;;;;;;;3.65;2.72;;;;;;;;;;5092875;28;20693;-72
2022/12/13 05:59:53;;;;;;;4.05;3.70;;;;;;;;;;5093028;28;20211;-72
2022/12/13 06:02:20;;;;;;;4.45;3.90;;;;;;;;;;5092983;28;20216;-71
2022/12/13 06:04:48;;;;;;;23.15;9.88;;;;;;;;;;5092106;28;20212;-72
2022/12/13 06:07:15;;;;;;;15.13;9.85;;;;;;;;;;5092812;28;20231;-71
2022/12/13 06:09:43;;;;;;;18.70;6.53;;;;;;;;;;5092834;28;20669;-72
2022/12/13 06:12:10;;;;;;;18.77;7.82;;;;;;;;;;5092850;28;20213;-72
2022/12/13 06:14:38;;;;;;;18.63;10.13;;;;;;;;;;5092424;28;20234;-72
2022/12/13 06:17:07;;;;;;;9.90;6.35;;;;;;;;;;5092464;28;20247;-71
2022/12/13 06:19:34;;;;;;;6.20;3.47;;;;;;;;;;5092782;28;20251;-71
2022/12/13 06:22:01;;;;;;;3.85;2.72;;;;;;;;;;5092753;28;20421;-72
2022/12/13 06:24:29;;;;;;;13.60;6.38;;;;;;;;;;5092180;28;20575;-71
2022/12/13 06:26:58;;;;;;;9.70;5.57;;;;;;;;;;5092532;28;20264;-71
2022/12/13 06:29:26;;;;;;;3.27;2.97;;;;;;;;;;5092872;28;20458;-71
2022/12/13 06:31:54;;;;;;;26.20;8.18;;;;;;;;;;5090092;28;20461;-71
2022/12/13 06:34:21;;;;;;;5.20;4.45;;;;;;;;;;5092160;28;20722;-71
2022/12/13 06:36:49;;;;;;;2.72;2.45;;;;;;;;;;5090865;28;20744;-72
2022/12/13 06:39:16;;;;;;;8.52;6.03;;;;;;;;;;5092580;28;20211;-72
2022/12/13 06:41:43;;;;;;;19.77;8.85;;;;;;;;;;5092749;28;20207;-72
2022/12/13 06:44:12;;;;;;;17.65;10.23;;;;;;;;;;5092042;28;20215;-71
2022/12/13 06:46:39;;;;;;;9.05;6.30;;;;;;;;;;5092591;28;20204;-71
2022/12/13 06:49:06;;;;;;;23.58;7.28;;;;;;;;;;5092423;28;20211;-71
2022/12/13 06:51:34;;;;;;;10.73;6.45;;;;;;;;;;5092403;28;20217;-72
2022/12/13 06:54:02;;;;;;;15.32;8.75;;;;;;;;;;5091766;28;20239;-72
2022/12/13 06:56:29;;;;;;;26.00;8.50;;;;;;;;;;5092603;28;20260;-71
2022/12/13 06:58:56;;;;;;;7.18;6.03;;;;;;;;;;5092288;28;20216;-71
2022/12/13 07:01:25;;;;;;;4.88;2.97;;;;;;;;;;5092371;28;20211;-72
2022/12/13 07:03:52;;;;;;;13.05;8.90;;;;;;;;;;5091658;28;20749;-72
2022/12/13 07:06:20;;;;;;;19.55;9.98;;;;;;;;;;5093441;28;20226;-72
2022/12/13 07:08:48;;;;;;;17.00;6.75;;;;;;;;;;5096362;28;20600;-72
2022/12/13 07:11:16;;;;;;;19.00;12.65;;;;;;;;;;5097676;28;20211;-73
2022/12/13 07:13:43;;;;;;;6.05;5.55;;;;;;;;;;5094948;28;20583;-73
2022/12/13 07:16:10;;;;;;;3.28;3.05;;;;;;;;;;5095855;28;20576;-71
2022/12/13 07:18:39;;;;;;;20.05;9.10;;;;;;;;;;5095558;28;20697;-72
2022/12/13 07:21:07;;;;;;;14.93;6.47;;;;;;;;;;5095681;28;20217;-72
2022/12/13 07:23:35;;;;;;;14.18;8.00;;;;;;;;;;5095001;28;20446;-72
2022/12/13 07:26:02;;;;;;;11.35;5.40;;;;;;;;;;5095564;28;20708;-71
2022/12/13 07:28:32;;;;;;;7.03;5.35;;;;;;;;;;5095785;28;20242;-71
2022/12/13 07:31:01;;;;;;;2.42;1.88;;;;;;;;;;5093469;28;20218;-72
2022/12/13 07:33:28;;;;;;;21.75;9.10;;;;;;;;;;5094860;28;20266;-72
2022/12/13 07:36:01;;;;;;;13.30;9.25;;;;;;;;;;5095298;28;20689;-71
2022/12/13 07:38:28;;;;;;;13.87;5.40;;;;;;;;;;5093903;28;20242;-71
2022/12/13 07:40:57;;;;;;;21.05;11.23;;;;;;;;;;5095422;28;20454;-71
2022/12/13 07:43:24;;;;;;;22.27;13.80;;;;;;;;;;5094892;28;20212;-71
2022/12/13 07:45:51;;;;;;;13.67;7.07;;;;;;;;;;5094612;28;20429;-72
2022/12/13 07:48:18;;;;;;;24.93;13.17;;;;;;;;;;5095161;28;20477;-72
2022/12/13 07:50:46;;;;;;;17.00;9.70;;;;;;;;;;5095128;28;20454;-72
2022/12/13 07:53:14;;;;;;;16.07;11.63;;;;;;;;;;5094798;28;20436;-72
2022/12/13 07:55:41;;;;;;;33.13;13.63;;;;;;;;;;5108803;28;20451;-72
2022/12/13 07:58:09;;;;;;;39.33;16.53;;;;;;;;;;5115137;28;20486;-72
2022/12/13 08:00:37;;;;;;;21.73;13.00;;;;;;;;;;5115153;28;20451;-73
2022/12/13 08:03:05;;;;;;;35.47;15.63;;;;;;;;;;5115268;28;20959;-72
2022/12/13 08:05:32;;;;;;;28.83;13.10;;;;;;;;;;5114778;28;20810;-72
2022/12/13 08:08:00;;;;;;;25.17;13.52;;;;;;;;;;5114906;28;20912;-72
2022/12/13 08:10:28;;;;;;;20.50;10.03;;;;;;;;;;5114250;27;20215;-72
2022/12/13 08:12:56;;;;;;;40.73;20.67;;;;;;;;;;5114730;28;20463;-73
2022/12/13 08:15:23;;;;;;;22.77;10.37;;;;;;;;;;5114575;28;20454;-72
2022/12/13 08:17:50;;;;;;;72.57;30.33;;;;;;;;;;5114470;28;21034;-72
2022/12/13 08:20:18;;;;;;;43.33;13.53;;;;;;;;;;5115059;28;20843;-72
2022/12/13 08:22:45;;;;;;;25.90;7.73;;;;;;;;;;5114674;28;21009;-72
2022/12/13 08:25:13;;;;;;;67.60;25.17;;;;;;;;;;5114498;28;20449;-72
2022/12/13 08:27:43;;;;;;;19.83;10.30;;;;;;;;;;5114857;28;20447;-72
2022/12/13 08:30:11;;;;;;;23.60;10.30;;;;;;;;;;5114891;28;20456;-71
2022/12/13 08:32:38;;;;;;;25.93;8.77;;;;;;;;;;5115034;28;20452;-72
2022/12/13 08:35:05;;;;;;;17.37;7.13;;;;;;;;;;5114294;28;20519;-72
2022/12/13 08:37:32;;;;;;;12.43;7.73;;;;;;;;;;5114397;28;20494;-73
2022/12/13 08:40:00;;;;;;;25.20;13.07;;;;;;;;;;5113121;28;20458;-73
2022/12/13 08:42:27;;;;;;;30.67;15.00;;;;;;;;;;5114340;27;20445;-72
2022/12/13 08:44:55;;;;;;;35.97;18.70;;;;;;;;;;5114250;28;20830;-73
2022/12/13 08:47:24;;;;;;;38.07;15.93;;;;;;;;;;5114602;28;20994;-72
2022/12/13 08:49:51;;;;;;;28.97;14.93;;;;;;;;;;5114425;28;20486;-72
2022/12/13 08:52:19;;;;;;;33.00;15.07;;;;;;;;;;5114638;28;20450;-73
2022/12/13 08:54:46;;;;;;;33.23;16.37;;;;;;;;;;5113979;28;20450;-72
2022/12/13 08:57:13;;;;;;;30.83;17.10;;;;;;;;;;5112124;28;20489;-70
2022/12/13 08:59:40;;;;;;;44.70;19.50;;;;;;;;;;5093968;28;20446;-72
2022/12/13 09:02:12;;;;;;;34.00;13.80;;;;;;;;;;5107615;28;20942;-73
2022/12/13 09:04:39;;;;;;;33.60;14.80;;;;;;;;;;5113231;28;20449;-70
2022/12/13 09:07:06;;;;;;;40.67;18.50;;;;;;;;;;5113840;28;20466;-70
2022/12/13 09:09:33;;;;;;;29.70;16.47;;;;;;;;;;5114314;28;20453;-70
2022/12/13 09:12:00;;;;;;;33.10;17.17;;;;;;;;;;5113391;27;20461;-70
2022/12/13 09:14:28;;;;;;;36.80;16.97;;;;;;;;;;5098561;28;20967;-70
2022/12/13 09:16:55;;;;;;;28.30;16.53;;;;;;;;;;5089208;28;20490;-72
2022/12/13 09:19:25;;;;;;;30.97;18.40;;;;;;;;;;5091475;28;20485;-71
2022/12/13 09:21:52;;;;;;;118.10;39.30;;;;;;;;;;5091539;28;20450;-70
2022/12/13 09:24:19;;;;;;;75.73;24.10;;;;;;;;;;5091511;28;20458;-71
2022/12/13 09:26:47;;;;;;;62.17;30.07;;;;;;;;;;5090489;28;21001;-71
2022/12/13 09:29:15;;;;;;;85.00;26.00;;;;;;;;;;5091202;28;20899;-71
2022/12/13 09:31:42;;;;;;;341.10;89.57;;;;;;;;;;5091630;28;20450;-71
2022/12/13 09:34:10;;;;;;;62.30;34.37;;;;;;;;;;5091514;28;20469;-72
2022/12/13 09:36:38;;;;;;;78.30;34.30;;;;;;;;;;5090986;28;20504;-72
2022/12/13 09:39:05;;;;;;;95.03;41.03;;;;;;;;;;5091586;28;20486;-71
2022/12/13 09:41:34;;;;;;;77.07;34.57;;;;;;;;;;5091861;28;20465;-70
2022/12/13 09:44:03;;;;;;;49.80;21.40;;;;;;;;;;5091252;28;20879;-71
2022/12/13 09:46:33;;;;;;;179.50;65.27;;;;;;;;;;5091012;28;20461;-70
2022/12/13 09:49:02;;;;;;;24.13;14.80;;;;;;;;;;5091382;28;20872;-71
2022/12/13 09:51:30;;;;;;;88.13;36.57;;;;;;;;;;5091653;28;20450;-70
2022/12/13 09:53:59;;;;;;;72.57;27.03;;;;;;;;;;5091090;28;20455;-71
2022/12/13 09:56:26;;;;;;;30.57;14.00;;;;;;;;;;5091064;28;20853;-71
2022/12/13 09:58:55;;;;;;;30.53;13.73;;;;;;;;;;5090929;28;20504;-71
2022/12/13 10:01:22;;;;;;;15.23;9.37;;;;;;;;;;5091651;28;20545;-70
2022/12/13 10:03:51;;;;;;;18.73;10.17;;;;;;;;;;5090670;28;20553;-71
2022/12/13 10:06:19;;;;;;;24.30;14.73;;;;;;;;;;5091066;28;20466;-71
2022/12/13 10:08:48;;;;;;;27.47;16.70;;;;;;;;;;5090887;28;20473;-71
2022/12/13 10:11:17;;;;;;;29.27;14.80;;;;;;;;;;5091282;28;20455;-71
2022/12/13 10:13:46;;;;;;;31.70;15.03;;;;;;;;;;5090676;28;20455;-72
2022/12/13 10:16:16;;;;;;;26.13;14.00;;;;;;;;;;5090930;28;20525;-71
2022/12/13 10:18:44;;;;;;;26.47;13.70;;;;;;;;;;5090624;28;21030;-71
2022/12/13 10:21:13;;;;;;;30.30;14.03;;;;;;;;;;5090488;28;20457;-71
2022/12/13 10:23:40;;;;;;;29.57;15.20;;;;;;;;;;5086248;28;20843;-71
2022/12/13 10:26:09;;;;;;;23.40;14.60;;;;;;;;;;5070739;28;20469;-71
2022/12/13 10:28:38;;;;;;;25.60;13.67;;;;;;;;;;5070848;28;20474;-71
2022/12/13 10:31:05;;;;;;;28.83;14.70;;;;;;;;;;5070909;28;20452;-71
2022/12/13 10:33:34;;;;;;;18.87;11.90;;;;;;;;;;5070314;28;20453;-71
2022/12/13 10:36:05;;;;;;;28.37;14.30;;;;;;;;;;5070655;28;20458;-71
2022/12/13 10:38:35;;;;;;;20.13;13.37;;;;;;;;;;5070284;28;20870;-71
2022/12/13 10:41:02;;;;;;;26.43;13.53;;;;;;;;;;5071914;28;20691;-70
2022/12/13 10:43:30;;;;;;;29.30;15.70;;;;;;;;;;5075032;28;20543;-71
2022/12/13 10:46:00;;;;;;;26.40;15.30;;;;;;;;;;5074771;28;20476;-70
2022/12/13 10:48:31;;;;;;;33.23;12.70;;;;;;;;;;5074958;28;20836;-71
2022/12/13 10:51:00;;;;;;;25.00;13.30;;;;;;;;;;5074698;28;20447;-71
2022/12/13 10:53:29;;;;;;;32.97;18.13;;;;;;;;;;5074610;28;21058;-70
2022/12/13 10:55:57;;;;;;;23.43;13.90;;;;;;;;;;5074715;28;20471;-70
2022/12/13 10:58:34;;;;;;;24.57;14.27;;;;;;;;;;5075821;28;20487;-70
2022/12/13 11:01:11;;;;;;;24.23;13.00;;;;;;;;;;5075843;28;20461;-70
2022/12/13 11:03:38;;;;;;;25.20;13.70;;;;;;;;;;5075534;28;20447;-70
2022/12/13 11:06:06;;;;;;;28.87;15.80;;;;;;;;;;5075812;28;20455;-70
2022/12/13 11:08:34;;;;;;;26.20;13.50;;;;;;;;;;5075717;28;20477;-71
2022/12/13 11:11:02;;;;;;;29.57;16.40;;;;;;;;;;5075721;28;20459;-70
2022/12/13 11:13:35;;;;;;;23.70;12.50;;;;;;;;;;5075675;28;20967;-70
2022/12/13 11:16:03;;;;;;;26.50;14.33;;;;;;;;;;5075509;28;20487;-71
2022/12/13 11:18:35;;;;;;;20.77;11.60;;;;;;;;;;5075581;28;20491;-71
2022/12/13 11:21:03;;;;;;;23.70;14.90;;;;;;;;;;5075593;28;20451;-71
2022/12/13 11:23:32;;;;;;;25.60;13.80;;;;;;;;;;5075264;28;20448;-71
2022/12/13 11:26:01;;;;;;;30.77;13.90;;;;;;;;;;5075534;28;20451;-70
2022/12/13 11:28:49;;;;;;;25.83;14.40;;;;;;;;;;5075511;28;20471;-71
2022/12/13 11:31:20;;;;;;;28.17;16.07;;;;;;;;;;5070785;28;20471;-70
2022/12/13 11:33:55;;;;;;;29.40;13.90;;;;;;;;;;5075111;28;20454;-70
2022/12/13 11:36:28;;;;;;;21.00;11.93;;;;;;;;;;5081885;28;20446;-70
2022/12/13 11:39:01;;;;;;;24.60;12.80;;;;;;;;;;5094622;28;20506;-70
2022/12/13 11:41:30;;;;;;;19.03;10.77;;;;;;;;;;5095142;28;20550;-70
2022/12/13 11:43:58;;;;;;;22.50;12.37;;;;;;;;;;5094793;28;20970;-70
2022/12/13 11:46:31;;;;;;;26.57;12.77;;;;;;;;;;5095250;28;20447;-70
2022/12/13 11:49:02;;;;;;;21.77;13.73;;;;;;;;;;5094590;28;20458;-70
2022/12/13 11:51:32;;;;;;;23.20;12.73;;;;;;;;;;5094785;28;20453;-70
2022/12/13 11:54:01;;;;;;;25.67;14.03;;;;;;;;;;5094600;28;20895;-70
2022/12/13 11:56:31;;;;;;;23.23;12.10;;;;;;;;;;5095054;28;20939;-70
2022/12/13 11:59:03;;;;;;;22.67;14.37;;;;;;;;;;5094783;28;20489;-70
2022/12/13 12:01:33;;;;;;;20.70;10.10;;;;;;;;;;5094944;28;20519;-70
2022/12/13 12:04:04;;;;;;;16.23;9.43;;;;;;;;;;5094333;28;20450;-70
2022/12/13 12:06:35;;;;;;;22.20;11.80;;;;;;;;;;5095141;28;20813;-72
2022/12/13 12:09:02;;;;;;;21.77;9.47;;;;;;;;;;5094728;28;20451;-69
2022/12/13 12:11:32;;;;;;;21.43;11.27;;;;;;;;;;5094821;28;20559;-72
2022/12/13 12:14:02;;;;;;;14.43;8.10;;;;;;;;;;5093362;28;20454;-72
2022/12/13 12:16:33;;;;;;;17.70;11.00;;;;;;;;;;5094791;28;20464;-71
2022/12/13 12:19:02;;;;;;;19.47;10.00;;;;;;;;;;5094815;28;21026;-71
2022/12/13 12:21:36;;;;;;;18.80;10.23;;;;;;;;;;5094892;28;20454;-71
2022/12/13 12:24:10;;;;;;;22.03;11.53;;;;;;;;;;5094287;28;20453;-71
2022/12/13 12:26:43;;;;;;;19.37;12.43;;;;;;;;;;5094623;28;20465;-72
2022/12/13 12:29:18;;;;;;;26.03;16.90;;;;;;;;;;5094602;28;20455;-73
2022/12/13 12:31:49;;;;;;;19.80;11.20;;;;;;;;;;5094698;28;20454;-72
2022/12/13 12:34:22;;;;;;;17.67;10.90;;;;;;;;;;5094215;28;20458;-72
2022/12/13 12:36:57;;;;;;;41.37;16.60;;;;;;;;;;5094449;28;20455;-72
2022/12/13 12:39:34;;;;;;;15.07;9.40;;;;;;;;;;5094313;28;20505;-72
2022/12/13 12:42:14;;;;;;;19.23;12.17;;;;;;;;;;5094472;28;20450;-71
2022/12/13 12:44:46;;;;;;;24.73;12.70;;;;;;;;;;5093888;28;20462;-71
2022/12/13 12:47:19;;;;;;;30.33;17.57;;;;;;;;;;5094313;28;20470;-71
2022/12/13 12:50:02;;;;;;;10.50;6.73;;;;;;;;;;5094036;28;20813;-72
2022/12/13 12:52:34;;;;;;;22.03;12.93;;;;;;;;;;5094406;28;20458;-71
2022/12/13 12:55:06;;;;;;;8.73;5.50;;;;;;;;;;5093974;28;20455;-71
2022/12/13 12:57:39;;;;;;;13.13;7.83;;;;;;;;;;5094114;28;20912;-72
2022/12/13 13:00:10;;;;;;;11.27;6.27;;;;;;;;;;5094067;28;20486;-72
2022/12/13 13:02:40;;;;;;;7.03;3.77;;;;;;;;;;5093978;28;20462;-72
2022/12/13 13:05:13;;;;;;;10.20;7.17;;;;;;;;;;5092888;28;20454;-71
2022/12/13 13:07:43;;;;;;;10.73;7.27;;;;;;;;;;5093749;28;20467;-72
2022/12/13 13:10:10;;;;;;;8.13;4.03;;;;;;;;;;5093894;28;20442;-71
2022/12/13 13:12:39;;;;;;;12.50;5.07;;;;;;;;;;5093980;28;20450;-71
2022/12/13 13:15:21;;;;;;;12.30;7.50;;;;;;;;;;5093506;28;20546;-71
2022/12/13 13:17:49;;;;;;;8.57;5.73;;;;;;;;;;5093242;28;20486;-72
2022/12/13 13:20:23;;;;;;;10.70;7.10;;;;;;;;;;5093754;28;20486;-71
2022/12/13 13:22:50;;;;;;;18.23;11.33;;;;;;;;;;5093756;28;20450;-71
2022/12/13 13:25:21;;;;;;;21.20;12.17;;;;;;;;;;5093195;28;20455;-71
2022/12/13 13:27:49;;;;;;;55.10;20.10;;;;;;;;;;5093416;28;20473;-72
2022/12/13 13:30:18;;;;;;;15.20;8.07;;;;;;;;;;5093596;28;20447;-71
2022/12/13 13:32:45;;;;;;;13.73;8.10;;;;;;;;;;5093458;28;21005;-71
2022/12/13 13:35:31;;;;;;;11.67;9.00;;;;;;;;;;5093133;28;20451;-71
2022/12/13 13:38:01;;;;;;;20.63;14.43;;;;;;;;;;5093072;28;20474;-72
2022/12/13 13:40:33;;;;;;;53.20;26.40;;;;;;;;;;5093354;28;20486;-71
2022/12/13 13:43:08;;;;;;;24.63;14.07;;;;;;;;;;5093543;28;20446;-71
2022/12/13 13:45:50;;;;;;;47.13;23.67;;;;;;;;;;5092974;28;20816;-71
2022/12/13 13:48:25;;;;;;;13.93;7.50;;;;;;;;;;5093157;28;20462;-71
2022/12/13 13:51:16;;;;;;;5.03;4.63;;;;;;;;;;5093385;28;20453;-71
2022/12/13 13:54:07;;;;;;;15.53;7.00;;;;;;;;;;5092866;28;20458;-71
2022/12/13 13:57:01;;;;;;;9.93;6.67;;;;;;;;;;5077704;28;20455;-72
2022/12/13 13:59:50;;;;;;;10.23;5.77;;;;;;;;;;5057156;28;20496;-71
2022/12/13 14:02:35;;;;;;;11.23;6.70;;;;;;;;;;5093132;28;20447;-71
2022/12/13 14:05:11;;;;;;;10.37;6.63;;;;;;;;;;5071733;28;20504;-71
2022/12/13 14:08:01;;;;;;;7.63;4.40;;;;;;;;;;5092869;28;20474;-71
2022/12/13 14:10:43;;;;;;;13.67;6.17;;;;;;;;;;5093046;28;20446;-71
2022/12/13 14:13:31;;;;;;;11.40;8.10;;;;;;;;;;5090729;28;20465;-72
2022/12/13 14:16:22;;;;;;;15.73;10.63;;;;;;;;;;5092496;28;20458;-72
2022/12/13 14:19:10;;;;;;;10.30;6.20;;;;;;;;;;5092676;28;20490;-71
2022/12/13 14:21:43;;;;;;;3.40;3.10;;;;;;;;;;5092609;28;20476;-71
2022/12/13 14:24:17;;;;;;;8.47;6.37;;;;;;;;;;5092339;28;20454;-71
2022/12/13 14:26:49;;;;;;;9.20;5.40;;;;;;;;;;5092650;28;20450;-71
2022/12/13 14:29:17;;;;;;;11.10;7.20;;;;;;;;;;5093137;28;20875;-71
2022/12/13 14:31:45;;;;;;;12.50;7.23;;;;;;;;;;5092673;28;20949;-71
2022/12/13 14:34:20;;;;;;;10.20;7.43;;;;;;;;;;5092178;28;20948;-72
2022/12/13 14:36:54;;;;;;;19.63;16.13;;;;;;;;;;5092571;28;20449;-71
2022/12/13 14:39:21;;;;;;;12.00;8.13;;;;;;;;;;5092665;28;20486;-71
2022/12/13 14:41:50;;;;;;;5.77;4.37;;;;;;;;;;5092746;28;20443;-71
2022/12/13 14:44:18;;;;;;;12.50;7.40;;;;;;;;;;5092196;28;20455;-72